Terminal Aerodrome Forecast
Issued by NWS

Home | Current Version | Previous Version | Text Only | Print | Product List | Glossary On
Versions: 1 2 3 4 5 6 7 8 9 10 11 12 13 14 15 16 17 18 19 20 21
000
FTUS46 KLOX 180554
TAFBUR
TAF
KBUR 180554Z 1806/1906 14004KT P6SM SKC
     FM181300 VRB03KT 6SM BR SCT008
     FM181600 15005KT 6SM HZ SKC
     FM182100 18009KT P6SM SKC
     FM190400 14004KT P6SM SKC=

USA.gov is the U.S. government's official web portal to all federal, state and local government web resources and services.